sensor_id;sensor_type;location;lat;lon;timestamp;P1;durP1;ratioP1;P2;durP2;ratioP2
11121;SDS011;5615;49.304;10.576;2023-05-02T00:00:37;21.13;;;18.07;;
11121;SDS011;5615;49.304;10.576;2023-05-02T00:03:04;22.83;;;19.37;;
11121;SDS011;5615;49.304;10.576;2023-05-02T00:05:31;21.90;;;18.80;;
11121;SDS011;5615;49.304;10.576;2023-05-02T00:07:58;25.30;;;19.30;;
11121;SDS011;5615;49.304;10.576;2023-05-02T00:10:26;24.73;;;19.93;;
11121;SDS011;5615;49.304;10.576;2023-05-02T00:12:52;25.40;;;20.53;;
11121;SDS011;5615;49.304;10.576;2023-05-02T00:15:19;20.90;;;18.70;;
11121;SDS011;5615;49.304;10.576;2023-05-02T00:17:46;23.70;;;19.93;;
11121;SDS011;5615;49.304;10.576;2023-05-02T00:20:12;25.77;;;21.17;;
11121;SDS011;5615;49.304;10.576;2023-05-02T00:22:39;23.10;;;20.37;;
11121;SDS011;5615;49.304;10.576;2023-05-02T00:25:06;24.07;;;20.60;;
11121;SDS011;5615;49.304;10.576;2023-05-02T00:27:35;25.33;;;20.83;;
11121;SDS011;5615;49.304;10.576;2023-05-02T00:30:03;25.73;;;21.67;;
11121;SDS011;5615;49.304;10.576;2023-05-02T00:32:30;25.57;;;21.47;;
11121;SDS011;5615;49.304;10.576;2023-05-02T00:34:57;26.37;;;21.23;;
11121;SDS011;5615;49.304;10.576;2023-05-02T00:37:24;25.77;;;20.97;;
11121;SDS011;5615;49.304;10.576;2023-05-02T00:39:51;23.37;;;20.23;;
11121;SDS011;5615;49.304;10.576;2023-05-02T00:42:18;23.93;;;21.33;;
11121;SDS011;5615;49.304;10.576;2023-05-02T00:44:46;25.30;;;20.97;;
11121;SDS011;5615;49.304;10.576;2023-05-02T00:47:13;29.30;;;23.00;;
11121;SDS011;5615;49.304;10.576;2023-05-02T00:49:39;27.20;;;22.23;;
11121;SDS011;5615;49.304;10.576;2023-05-02T00:52:06;27.33;;;20.80;;
11121;SDS011;5615;49.304;10.576;2023-05-02T00:54:34;26.10;;;21.40;;
11121;SDS011;5615;49.304;10.576;2023-05-02T00:57:02;27.60;;;21.60;;
11121;SDS011;5615;49.304;10.576;2023-05-02T00:59:28;25.90;;;21.37;;
11121;SDS011;5615;49.304;10.576;2023-05-02T01:01:59;26.57;;;21.10;;
11121;SDS011;5615;49.304;10.576;2023-05-02T01:04:39;23.23;;;20.70;;
11121;SDS011;5615;49.304;10.576;2023-05-02T01:07:21;23.43;;;20.67;;
11121;SDS011;5615;49.304;10.576;2023-05-02T01:10:03;26.53;;;21.10;;
11121;SDS011;5615;49.304;10.576;2023-05-02T01:12:40;27.77;;;21.10;;
11121;SDS011;5615;49.304;10.576;2023-05-02T01:15:10;25.63;;;20.57;;
11121;SDS011;5615;49.304;10.576;2023-05-02T01:17:41;24.93;;;20.37;;
11121;SDS011;5615;49.304;10.576;2023-05-02T01:20:12;25.17;;;20.87;;
11121;SDS011;5615;49.304;10.576;2023-05-02T01:22:42;25.13;;;21.23;;
11121;SDS011;5615;49.304;10.576;2023-05-02T01:25:13;26.03;;;22.03;;
11121;SDS011;5615;49.304;10.576;2023-05-02T01:27:50;24.83;;;21.33;;
11121;SDS011;5615;49.304;10.576;2023-05-02T01:30:25;25.53;;;20.73;;
11121;SDS011;5615;49.304;10.576;2023-05-02T01:32:54;27.13;;;22.63;;
11121;SDS011;5615;49.304;10.576;2023-05-02T01:35:23;25.03;;;21.43;;
11121;SDS011;5615;49.304;10.576;2023-05-02T01:37:51;28.73;;;22.77;;
11121;SDS011;5615;49.304;10.576;2023-05-02T01:40:19;26.03;;;21.17;;
11121;SDS011;5615;49.304;10.576;2023-05-02T01:42:49;29.50;;;24.77;;
11121;SDS011;5615;49.304;10.576;2023-05-02T01:45:17;29.80;;;25.67;;
11121;SDS011;5615;49.304;10.576;2023-05-02T01:47:47;36.57;;;28.00;;
11121;SDS011;5615;49.304;10.576;2023-05-02T01:50:16;34.17;;;27.03;;
11121;SDS011;5615;49.304;10.576;2023-05-02T01:52:47;28.67;;;24.67;;
11121;SDS011;5615;49.304;10.576;2023-05-02T01:55:16;29.70;;;24.50;;
11121;SDS011;5615;49.304;10.576;2023-05-02T01:57:43;29.87;;;25.00;;
11121;SDS011;5615;49.304;10.576;2023-05-02T02:00:12;29.73;;;24.03;;
11121;SDS011;5615;49.304;10.576;2023-05-02T02:02:42;30.80;;;24.87;;
11121;SDS011;5615;49.304;10.576;2023-05-02T02:05:11;31.90;;;25.57;;
11121;SDS011;5615;49.304;10.576;2023-05-02T02:07:39;37.00;;;27.70;;
11121;SDS011;5615;49.304;10.576;2023-05-02T02:10:06;35.03;;;27.43;;
11121;SDS011;5615;49.304;10.576;2023-05-02T02:12:34;39.83;;;28.53;;
11121;SDS011;5615;49.304;10.576;2023-05-02T02:15:07;37.27;;;29.03;;
11121;SDS011;5615;49.304;10.576;2023-05-02T02:17:39;35.83;;;28.53;;
11121;SDS011;5615;49.304;10.576;2023-05-02T02:20:09;37.07;;;28.13;;
11121;SDS011;5615;49.304;10.576;2023-05-02T02:22:39;35.87;;;27.60;;
11121;SDS011;5615;49.304;10.576;2023-05-02T02:25:09;33.30;;;27.93;;
11121;SDS011;5615;49.304;10.576;2023-05-02T02:27:37;36.10;;;28.57;;
11121;SDS011;5615;49.304;10.576;2023-05-02T02:30:04;34.17;;;26.93;;
11121;SDS011;5615;49.304;10.576;2023-05-02T02:32:33;38.17;;;28.43;;
11121;SDS011;5615;49.304;10.576;2023-05-02T02:34:59;34.97;;;27.53;;
11121;SDS011;5615;49.304;10.576;2023-05-02T02:37:29;34.43;;;27.83;;
11121;SDS011;5615;49.304;10.576;2023-05-02T02:39:59;35.07;;;27.80;;
11121;SDS011;5615;49.304;10.576;2023-05-02T02:42:31;34.23;;;27.77;;
11121;SDS011;5615;49.304;10.576;2023-05-02T02:45:07;33.57;;;27.50;;
11121;SDS011;5615;49.304;10.576;2023-05-02T02:47:43;34.90;;;26.97;;
11121;SDS011;5615;49.304;10.576;2023-05-02T02:50:17;31.67;;;26.37;;
11121;SDS011;5615;49.304;10.576;2023-05-02T02:52:51;33.90;;;26.70;;
11121;SDS011;5615;49.304;10.576;2023-05-02T02:55:23;35.70;;;27.47;;
11121;SDS011;5615;49.304;10.576;2023-05-02T02:57:58;30.60;;;24.67;;
11121;SDS011;5615;49.304;10.576;2023-05-02T03:00:29;31.00;;;25.47;;
11121;SDS011;5615;49.304;10.576;2023-05-02T03:02:57;30.47;;;25.77;;
11121;SDS011;5615;49.304;10.576;2023-05-02T03:05:25;26.83;;;23.03;;
11121;SDS011;5615;49.304;10.576;2023-05-02T03:07:53;26.67;;;21.97;;
11121;SDS011;5615;49.304;10.576;2023-05-02T03:10:20;24.73;;;22.07;;
11121;SDS011;5615;49.304;10.576;2023-05-02T03:12:47;25.70;;;21.87;;
11121;SDS011;5615;49.304;10.576;2023-05-02T03:15:22;24.13;;;20.90;;
11121;SDS011;5615;49.304;10.576;2023-05-02T03:17:58;27.30;;;20.60;;
11121;SDS011;5615;49.304;10.576;2023-05-02T03:20:25;26.97;;;21.57;;
11121;SDS011;5615;49.304;10.576;2023-05-02T03:22:53;30.07;;;23.20;;
11121;SDS011;5615;49.304;10.576;2023-05-02T03:25:19;26.70;;;21.53;;
11121;SDS011;5615;49.304;10.576;2023-05-02T03:27:46;27.00;;;22.03;;
11121;SDS011;5615;49.304;10.576;2023-05-02T03:30:13;24.73;;;22.10;;
11121;SDS011;5615;49.304;10.576;2023-05-02T03:32:40;28.87;;;23.40;;
11121;SDS011;5615;49.304;10.576;2023-05-02T03:35:06;29.40;;;24.27;;
11121;SDS011;5615;49.304;10.576;2023-05-02T03:37:33;26.87;;;23.00;;
11121;SDS011;5615;49.304;10.576;2023-05-02T03:40:01;28.37;;;23.90;;
11121;SDS011;5615;49.304;10.576;2023-05-02T03:42:28;26.87;;;23.20;;
11121;SDS011;5615;49.304;10.576;2023-05-02T03:44:55;28.23;;;23.97;;
11121;SDS011;5615;49.304;10.576;2023-05-02T03:47:22;32.77;;;24.37;;
11121;SDS011;5615;49.304;10.576;2023-05-02T03:49:48;30.30;;;25.87;;
11121;SDS011;5615;49.304;10.576;2023-05-02T03:52:17;31.27;;;25.63;;
11121;SDS011;5615;49.304;10.576;2023-05-02T03:54:43;32.07;;;25.93;;
11121;SDS011;5615;49.304;10.576;2023-05-02T03:57:12;32.70;;;26.40;;
11121;SDS011;5615;49.304;10.576;2023-05-02T03:59:39;29.90;;;26.17;;
11121;SDS011;5615;49.304;10.576;2023-05-02T04:02:07;31.83;;;25.93;;
11121;SDS011;5615;49.304;10.576;2023-05-02T04:04:35;33.97;;;27.03;;
11121;SDS011;5615;49.304;10.576;2023-05-02T04:07:02;31.47;;;25.27;;
11121;SDS011;5615;49.304;10.576;2023-05-02T04:09:29;28.97;;;25.17;;
11121;SDS011;5615;49.304;10.576;2023-05-02T04:11:55;29.53;;;25.33;;
11121;SDS011;5615;49.304;10.576;2023-05-02T04:14:23;30.90;;;25.60;;
11121;SDS011;5615;49.304;10.576;2023-05-02T04:16:50;29.00;;;24.20;;
11121;SDS011;5615;49.304;10.576;2023-05-02T04:19:17;28.70;;;25.13;;
11121;SDS011;5615;49.304;10.576;2023-05-02T04:21:44;29.97;;;24.77;;
11121;SDS011;5615;49.304;10.576;2023-05-02T04:24:12;27.83;;;24.83;;
11121;SDS011;5615;49.304;10.576;2023-05-02T04:26:38;30.20;;;25.13;;
11121;SDS011;5615;49.304;10.576;2023-05-02T04:29:05;31.40;;;24.73;;
11121;SDS011;5615;49.304;10.576;2023-05-02T04:31:33;31.80;;;25.70;;
11121;SDS011;5615;49.304;10.576;2023-05-02T04:34:00;29.27;;;24.87;;
11121;SDS011;5615;49.304;10.576;2023-05-02T04:36:28;29.80;;;25.80;;
11121;SDS011;5615;49.304;10.576;2023-05-02T04:38:54;27.87;;;24.80;;
11121;SDS011;5615;49.304;10.576;2023-05-02T04:41:21;29.47;;;24.97;;
11121;SDS011;5615;49.304;10.576;2023-05-02T04:43:48;26.40;;;23.57;;
11121;SDS011;5615;49.304;10.576;2023-05-02T04:46:15;28.80;;;25.37;;
11121;SDS011;5615;49.304;10.576;2023-05-02T04:48:43;28.73;;;25.20;;
11121;SDS011;5615;49.304;10.576;2023-05-02T04:51:11;25.80;;;22.87;;
11121;SDS011;5615;49.304;10.576;2023-05-02T04:53:38;29.67;;;24.07;;
11121;SDS011;5615;49.304;10.576;2023-05-02T04:56:05;29.77;;;24.53;;
11121;SDS011;5615;49.304;10.576;2023-05-02T04:58:32;26.57;;;23.63;;
11121;SDS011;5615;49.304;10.576;2023-05-02T05:00:59;26.83;;;23.37;;
11121;SDS011;5615;49.304;10.576;2023-05-02T05:03:26;30.53;;;23.87;;
11121;SDS011;5615;49.304;10.576;2023-05-02T05:05:55;29.20;;;24.23;;
11121;SDS011;5615;49.304;10.576;2023-05-02T05:08:22;26.97;;;23.93;;
11121;SDS011;5615;49.304;10.576;2023-05-02T05:10:49;26.90;;;23.37;;
11121;SDS011;5615;49.304;10.576;2023-05-02T05:13:15;26.73;;;23.23;;
11121;SDS011;5615;49.304;10.576;2023-05-02T05:15:42;24.30;;;21.70;;
11121;SDS011;5615;49.304;10.576;2023-05-02T05:18:09;24.43;;;21.83;;
11121;SDS011;5615;49.304;10.576;2023-05-02T05:20:36;24.73;;;22.07;;
11121;SDS011;5615;49.304;10.576;2023-05-02T05:23:04;24.23;;;21.47;;
11121;SDS011;5615;49.304;10.576;2023-05-02T05:25:30;25.70;;;22.93;;
11121;SDS011;5615;49.304;10.576;2023-05-02T05:27:58;25.77;;;21.70;;
11121;SDS011;5615;49.304;10.576;2023-05-02T05:30:24;23.87;;;20.67;;
11121;SDS011;5615;49.304;10.576;2023-05-02T05:32:51;23.30;;;20.70;;
11121;SDS011;5615;49.304;10.576;2023-05-02T05:35:18;23.13;;;20.63;;
11121;SDS011;5615;49.304;10.576;2023-05-02T05:37:44;23.17;;;19.77;;
11121;SDS011;5615;49.304;10.576;2023-05-02T05:40:12;23.80;;;21.27;;
11121;SDS011;5615;49.304;10.576;2023-05-02T05:42:40;109.13;;;89.10;;
11121;SDS011;5615;49.304;10.576;2023-05-02T05:45:07;38.57;;;34.47;;
11121;SDS011;5615;49.304;10.576;2023-05-02T05:47:34;23.77;;;21.43;;
11121;SDS011;5615;49.304;10.576;2023-05-02T05:50:01;29.87;;;26.67;;
11121;SDS011;5615;49.304;10.576;2023-05-02T05:52:28;22.17;;;19.17;;
11121;SDS011;5615;49.304;10.576;2023-05-02T05:54:55;22.43;;;19.80;;
11121;SDS011;5615;49.304;10.576;2023-05-02T05:57:23;22.63;;;20.27;;
11121;SDS011;5615;49.304;10.576;2023-05-02T05:59:49;27.57;;;24.73;;
11121;SDS011;5615;49.304;10.576;2023-05-02T06:02:16;22.10;;;19.80;;
11121;SDS011;5615;49.304;10.576;2023-05-02T06:04:43;21.13;;;18.97;;
11121;SDS011;5615;49.304;10.576;2023-05-02T06:07:10;20.97;;;18.77;;
11121;SDS011;5615;49.304;10.576;2023-05-02T06:09:37;20.53;;;18.53;;
11121;SDS011;5615;49.304;10.576;2023-05-02T06:12:04;21.07;;;19.03;;
11121;SDS011;5615;49.304;10.576;2023-05-02T06:14:32;21.57;;;19.00;;
11121;SDS011;5615;49.304;10.576;2023-05-02T06:16:59;21.70;;;19.40;;
11121;SDS011;5615;49.304;10.576;2023-05-02T06:19:25;21.60;;;19.07;;
11121;SDS011;5615;49.304;10.576;2023-05-02T06:21:52;20.93;;;18.17;;
11121;SDS011;5615;49.304;10.576;2023-05-02T06:24:19;21.80;;;18.77;;
11121;SDS011;5615;49.304;10.576;2023-05-02T06:26:45;23.33;;;19.10;;
11121;SDS011;5615;49.304;10.576;2023-05-02T06:29:12;20.83;;;18.63;;
11121;SDS011;5615;49.304;10.576;2023-05-02T06:31:40;20.63;;;18.53;;
11121;SDS011;5615;49.304;10.576;2023-05-02T06:34:07;21.10;;;19.00;;
11121;SDS011;5615;49.304;10.576;2023-05-02T06:36:33;20.57;;;18.37;;
11121;SDS011;5615;49.304;10.576;2023-05-02T06:39:00;20.77;;;18.60;;
11121;SDS011;5615;49.304;10.576;2023-05-02T06:41:26;21.63;;;18.47;;
11121;SDS011;5615;49.304;10.576;2023-05-02T06:43:53;20.20;;;17.77;;
11121;SDS011;5615;49.304;10.576;2023-05-02T06:46:20;19.90;;;17.63;;
11121;SDS011;5615;49.304;10.576;2023-05-02T06:48:48;19.77;;;17.77;;
11121;SDS011;5615;49.304;10.576;2023-05-02T06:51:15;20.90;;;18.73;;
11121;SDS011;5615;49.304;10.576;2023-05-02T06:53:43;20.20;;;17.97;;
11121;SDS011;5615;49.304;10.576;2023-05-02T06:56:09;20.03;;;17.60;;
11121;SDS011;5615;49.304;10.576;2023-05-02T06:58:36;20.40;;;18.20;;
11121;SDS011;5615;49.304;10.576;2023-05-02T07:01:03;21.63;;;17.57;;
11121;SDS011;5615;49.304;10.576;2023-05-02T07:03:29;22.20;;;19.83;;
11121;SDS011;5615;49.304;10.576;2023-05-02T07:05:58;21.17;;;18.97;;
11121;SDS011;5615;49.304;10.576;2023-05-02T07:08:24;21.37;;;18.90;;
11121;SDS011;5615;49.304;10.576;2023-05-02T07:10:51;22.80;;;20.33;;
11121;SDS011;5615;49.304;10.576;2023-05-02T07:13:18;28.17;;;24.40;;
11121;SDS011;5615;49.304;10.576;2023-05-02T07:15:44;29.00;;;25.17;;
11121;SDS011;5615;49.304;10.576;2023-05-02T07:18:11;22.70;;;19.37;;
11121;SDS011;5615;49.304;10.576;2023-05-02T07:20:37;19.60;;;17.30;;
11121;SDS011;5615;49.304;10.576;2023-05-02T07:23:07;19.67;;;16.57;;
11121;SDS011;5615;49.304;10.576;2023-05-02T07:25:34;19.83;;;17.43;;
11121;SDS011;5615;49.304;10.576;2023-05-02T07:28:01;30.90;;;24.23;;
11121;SDS011;5615;49.304;10.576;2023-05-02T07:30:27;19.13;;;17.13;;
11121;SDS011;5615;49.304;10.576;2023-05-02T07:32:54;17.40;;;15.67;;
11121;SDS011;5615;49.304;10.576;2023-05-02T07:35:21;15.17;;;13.60;;
11121;SDS011;5615;49.304;10.576;2023-05-02T07:37:47;15.87;;;14.33;;
11121;SDS011;5615;49.304;10.576;2023-05-02T07:40:15;15.87;;;14.20;;
11121;SDS011;5615;49.304;10.576;2023-05-02T07:42:42;15.30;;;13.80;;
11121;SDS011;5615;49.304;10.576;2023-05-02T07:45:09;17.50;;;15.63;;
11121;SDS011;5615;49.304;10.576;2023-05-02T07:47:35;15.40;;;13.20;;
11121;SDS011;5615;49.304;10.576;2023-05-02T07:50:02;14.67;;;13.17;;
11121;SDS011;5615;49.304;10.576;2023-05-02T07:52:30;18.37;;;13.13;;
11121;SDS011;5615;49.304;10.576;2023-05-02T07:54:56;14.67;;;13.17;;
11121;SDS011;5615;49.304;10.576;2023-05-02T07:57:24;13.93;;;12.53;;
11121;SDS011;5615;49.304;10.576;2023-05-02T07:59:51;13.73;;;12.37;;
11121;SDS011;5615;49.304;10.576;2023-05-02T08:02:21;14.57;;;13.10;;
11121;SDS011;5615;49.304;10.576;2023-05-02T08:04:48;12.47;;;11.37;;
11121;SDS011;5615;49.304;10.576;2023-05-02T08:07:14;13.83;;;11.30;;
11121;SDS011;5615;49.304;10.576;2023-05-02T08:09:41;13.07;;;11.67;;
11121;SDS011;5615;49.304;10.576;2023-05-02T08:12:08;13.93;;;12.47;;
11121;SDS011;5615;49.304;10.576;2023-05-02T08:14:36;12.97;;;11.57;;
11121;SDS011;5615;49.304;10.576;2023-05-02T08:17:03;12.90;;;11.60;;
11121;SDS011;5615;49.304;10.576;2023-05-02T08:19:29;13.97;;;11.20;;
11121;SDS011;5615;49.304;10.576;2023-05-02T08:21:56;12.27;;;11.07;;
11121;SDS011;5615;49.304;10.576;2023-05-02T08:24:23;12.83;;;11.53;;
11121;SDS011;5615;49.304;10.576;2023-05-02T08:26:50;12.77;;;11.47;;
11121;SDS011;5615;49.304;10.576;2023-05-02T08:29:17;11.73;;;10.53;;
11121;SDS011;5615;49.304;10.576;2023-05-02T08:31:44;12.47;;;10.47;;
11121;SDS011;5615;49.304;10.576;2023-05-02T08:34:11;13.70;;;12.23;;
11121;SDS011;5615;49.304;10.576;2023-05-02T08:36:38;12.27;;;11.13;;
11121;SDS011;5615;49.304;10.576;2023-05-02T08:39:04;11.80;;;10.65;;
11121;SDS011;5615;49.304;10.576;2023-05-02T08:41:33;13.23;;;10.70;;
11121;SDS011;5615;49.304;10.576;2023-05-02T08:44:00;11.38;;;10.27;;
11121;SDS011;5615;49.304;10.576;2023-05-02T08:46:28;12.70;;;11.00;;
11121;SDS011;5615;49.304;10.576;2023-05-02T08:48:58;11.80;;;10.48;;
11121;SDS011;5615;49.304;10.576;2023-05-02T08:51:26;12.38;;;11.00;;
11121;SDS011;5615;49.304;10.576;2023-05-02T08:53:53;12.07;;;10.82;;
11121;SDS011;5615;49.304;10.576;2023-05-02T08:56:20;15.63;;;12.30;;
11121;SDS011;5615;49.304;10.576;2023-05-02T08:58:47;10.82;;;9.82;;
11121;SDS011;5615;49.304;10.576;2023-05-02T09:01:14;10.95;;;9.63;;
11121;SDS011;5615;49.304;10.576;2023-05-02T09:03:43;13.65;;;11.13;;
11121;SDS011;5615;49.304;10.576;2023-05-02T09:06:13;11.25;;;9.93;;
11121;SDS011;5615;49.304;10.576;2023-05-02T09:08:42;9.98;;;8.98;;
11121;SDS011;5615;49.304;10.576;2023-05-02T09:11:10;9.68;;;8.77;;
11121;SDS011;5615;49.304;10.576;2023-05-02T09:13:38;9.10;;;8.20;;
11121;SDS011;5615;49.304;10.576;2023-05-02T09:16:07;9.32;;;8.43;;
11121;SDS011;5615;49.304;10.576;2023-05-02T09:18:35;8.52;;;7.78;;
11121;SDS011;5615;49.304;10.576;2023-05-02T09:21:05;9.27;;;8.48;;
11121;SDS011;5615;49.304;10.576;2023-05-02T09:23:38;10.52;;;9.45;;
11121;SDS011;5615;49.304;10.576;2023-05-02T09:26:12;8.95;;;8.13;;
11121;SDS011;5615;49.304;10.576;2023-05-02T09:28:42;8.65;;;7.85;;
11121;SDS011;5615;49.304;10.576;2023-05-02T09:31:10;8.35;;;7.53;;
11121;SDS011;5615;49.304;10.576;2023-05-02T09:33:38;8.75;;;7.50;;
11121;SDS011;5615;49.304;10.576;2023-05-02T09:36:05;9.27;;;7.72;;
11121;SDS011;5615;49.304;10.576;2023-05-02T09:38:33;7.55;;;6.85;;
11121;SDS011;5615;49.304;10.576;2023-05-02T09:41:01;7.82;;;7.13;;
11121;SDS011;5615;49.304;10.576;2023-05-02T09:43:29;7.60;;;6.90;;
11121;SDS011;5615;49.304;10.576;2023-05-02T09:45:57;7.43;;;6.82;;
11121;SDS011;5615;49.304;10.576;2023-05-02T09:48:25;7.05;;;6.35;;
11121;SDS011;5615;49.304;10.576;2023-05-02T09:50:52;7.55;;;6.85;;
11121;SDS011;5615;49.304;10.576;2023-05-02T09:53:20;7.15;;;6.55;;
11121;SDS011;5615;49.304;10.576;2023-05-02T09:55:47;7.45;;;6.75;;
11121;SDS011;5615;49.304;10.576;2023-05-02T09:58:23;9.10;;;8.05;;
11121;SDS011;5615;49.304;10.576;2023-05-02T10:00:49;8.45;;;7.75;;
11121;SDS011;5615;49.304;10.576;2023-05-02T10:03:17;11.68;;;10.45;;
11121;SDS011;5615;49.304;10.576;2023-05-02T10:05:45;11.05;;;8.93;;
11121;SDS011;5615;49.304;10.576;2023-05-02T10:08:12;9.98;;;8.98;;
11121;SDS011;5615;49.304;10.576;2023-05-02T10:10:44;9.88;;;8.98;;
11121;SDS011;5615;49.304;10.576;2023-05-02T10:13:12;10.98;;;9.98;;
11121;SDS011;5615;49.304;10.576;2023-05-02T10:15:43;11.55;;;10.40;;
11121;SDS011;5615;49.304;10.576;2023-05-02T10:18:11;10.88;;;9.88;;
11121;SDS011;5615;49.304;10.576;2023-05-02T10:20:42;11.45;;;10.35;;
11121;SDS011;5615;49.304;10.576;2023-05-02T10:23:14;17.45;;;15.85;;
11121;SDS011;5615;49.304;10.576;2023-05-02T10:25:41;11.82;;;10.65;;
11121;SDS011;5615;49.304;10.576;2023-05-02T10:28:08;11.35;;;10.32;;
11121;SDS011;5615;49.304;10.576;2023-05-02T10:30:35;13.20;;;11.82;;
11121;SDS011;5615;49.304;10.576;2023-05-02T10:33:05;12.38;;;11.27;;
11121;SDS011;5615;49.304;10.576;2023-05-02T10:35:32;11.98;;;10.80;;
11121;SDS011;5615;49.304;10.576;2023-05-02T10:38:01;12.20;;;11.00;;
11121;SDS011;5615;49.304;10.576;2023-05-02T10:40:28;11.43;;;10.32;;
11121;SDS011;5615;49.304;10.576;2023-05-02T10:42:55;12.50;;;11.23;;
11121;SDS011;5615;49.304;10.576;2023-05-02T10:45:29;12.48;;;11.30;;
11121;SDS011;5615;49.304;10.576;2023-05-02T10:48:14;13.63;;;12.05;;
11121;SDS011;5615;49.304;10.576;2023-05-02T10:50:42;13.93;;;11.25;;
11121;SDS011;5615;49.304;10.576;2023-05-02T10:53:23;13.13;;;11.70;;
11121;SDS011;5615;49.304;10.576;2023-05-02T10:56:10;12.88;;;11.60;;
11121;SDS011;5615;49.304;10.576;2023-05-02T10:58:39;11.93;;;10.80;;
11121;SDS011;5615;49.304;10.576;2023-05-02T11:03:59;11.00;;;9.90;;
11121;SDS011;5615;49.304;10.576;2023-05-02T11:06:27;13.02;;;11.48;;
11121;SDS011;5615;49.304;10.576;2023-05-02T11:11:59;12.93;;;11.73;;
11121;SDS011;5615;49.304;10.576;2023-05-02T11:14:47;12.75;;;11.55;;
11121;SDS011;5615;49.304;10.576;2023-05-02T11:17:14;12.43;;;11.32;;
11121;SDS011;5615;49.304;10.576;2023-05-02T11:22:49;11.23;;;10.00;;
11121;SDS011;5615;49.304;10.576;2023-05-02T11:25:33;12.60;;;10.60;;
11121;SDS011;5615;49.304;10.576;2023-05-02T11:28:01;9.68;;;8.77;;
11121;SDS011;5615;49.304;10.576;2023-05-02T11:30:36;11.48;;;10.23;;
11121;SDS011;5615;49.304;10.576;2023-05-02T11:33:14;11.27;;;10.18;;
11121;SDS011;5615;49.304;10.576;2023-05-02T11:35:45;11.38;;;9.98;;
11121;SDS011;5615;49.304;10.576;2023-05-02T11:38:15;11.23;;;10.18;;
11121;SDS011;5615;49.304;10.576;2023-05-02T11:40:49;9.35;;;8.45;;
11121;SDS011;5615;49.304;10.576;2023-05-02T11:43:21;11.43;;;8.20;;
11121;SDS011;5615;49.304;10.576;2023-05-02T11:45:49;10.23;;;9.23;;
11121;SDS011;5615;49.304;10.576;2023-05-02T11:48:16;11.02;;;9.10;;
11121;SDS011;5615;49.304;10.576;2023-05-02T11:50:44;10.45;;;8.93;;
11121;SDS011;5615;49.304;10.576;2023-05-02T11:53:12;8.80;;;7.65;;
11121;SDS011;5615;49.304;10.576;2023-05-02T11:55:44;13.57;;;12.25;;
11121;SDS011;5615;49.304;10.576;2023-05-02T11:58:13;12.60;;;11.40;;
11121;SDS011;5615;49.304;10.576;2023-05-02T12:00:41;8.40;;;7.60;;
11121;SDS011;5615;49.304;10.576;2023-05-02T12:03:17;7.68;;;6.97;;
11121;SDS011;5615;49.304;10.576;2023-05-02T12:05:54;6.75;;;6.15;;
11121;SDS011;5615;49.304;10.576;2023-05-02T12:08:24;7.13;;;6.53;;
11121;SDS011;5615;49.304;10.576;2023-05-02T12:10:52;7.60;;;6.85;;
11121;SDS011;5615;49.304;10.576;2023-05-02T12:13:20;7.40;;;6.80;;
11121;SDS011;5615;49.304;10.576;2023-05-02T12:15:49;6.85;;;6.22;;
11121;SDS011;5615;49.304;10.576;2023-05-02T12:18:17;8.25;;;7.45;;
11121;SDS011;5615;49.304;10.576;2023-05-02T12:20:47;8.52;;;7.82;;
11121;SDS011;5615;49.304;10.576;2023-05-02T12:23:14;10.23;;;9.32;;
11121;SDS011;5615;49.304;10.576;2023-05-02T12:25:42;10.27;;;9.30;;
11121;SDS011;5615;49.304;10.576;2023-05-02T12:28:09;10.38;;;9.23;;
11121;SDS011;5615;49.304;10.576;2023-05-02T12:30:36;10.70;;;9.68;;
11121;SDS011;5615;49.304;10.576;2023-05-02T12:33:04;11.88;;;10.75;;
11121;SDS011;5615;49.304;10.576;2023-05-02T12:35:31;12.13;;;10.90;;
11121;SDS011;5615;49.304;10.576;2023-05-02T12:38:10;11.02;;;10.02;;
11121;SDS011;5615;49.304;10.576;2023-05-02T12:40:38;10.10;;;9.10;;
11121;SDS011;5615;49.304;10.576;2023-05-02T12:43:14;9.82;;;8.48;;
11121;SDS011;5615;49.304;10.576;2023-05-02T12:45:40;6.63;;;6.03;;
11121;SDS011;5615;49.304;10.576;2023-05-02T12:48:20;7.53;;;6.53;;
11121;SDS011;5615;49.304;10.576;2023-05-02T12:50:52;6.75;;;5.40;;
11121;SDS011;5615;49.304;10.576;2023-05-02T12:53:38;6.78;;;6.18;;
11121;SDS011;5615;49.304;10.576;2023-05-02T12:56:07;8.00;;;6.18;;
11121;SDS011;5615;49.304;10.576;2023-05-02T12:58:41;7.60;;;6.90;;
11121;SDS011;5615;49.304;10.576;2023-05-02T13:01:08;7.60;;;6.90;;
11121;SDS011;5615;49.304;10.576;2023-05-02T13:03:35;7.82;;;6.60;;
11121;SDS011;5615;49.304;10.576;2023-05-02T13:06:02;7.95;;;7.07;;
11121;SDS011;5615;49.304;10.576;2023-05-02T13:08:30;7.72;;;7.03;;
11121;SDS011;5615;49.304;10.576;2023-05-02T13:10:57;8.52;;;7.78;;
11121;SDS011;5615;49.304;10.576;2023-05-02T13:13:25;5.90;;;5.40;;
11121;SDS011;5615;49.304;10.576;2023-05-02T13:15:52;5.55;;;5.05;;
11121;SDS011;5615;49.304;10.576;2023-05-02T13:18:18;7.63;;;6.93;;
11121;SDS011;5615;49.304;10.576;2023-05-02T13:20:45;7.20;;;5.85;;
11121;SDS011;5615;49.304;10.576;2023-05-02T13:23:11;5.53;;;5.07;;
11121;SDS011;5615;49.304;10.576;2023-05-02T13:25:40;5.07;;;4.68;;
11121;SDS011;5615;49.304;10.576;2023-05-02T13:28:07;6.00;;;5.50;;
11121;SDS011;5615;49.304;10.576;2023-05-02T13:30:35;5.20;;;4.70;;
11121;SDS011;5615;49.304;10.576;2023-05-02T13:33:01;5.53;;;4.85;;
11121;SDS011;5615;49.304;10.576;2023-05-02T13:35:28;6.40;;;5.88;;
11121;SDS011;5615;49.304;10.576;2023-05-02T13:37:55;6.60;;;6.07;;
11121;SDS011;5615;49.304;10.576;2023-05-02T13:40:22;7.20;;;6.22;;
11121;SDS011;5615;49.304;10.576;2023-05-02T13:42:48;6.55;;;5.60;;
11121;SDS011;5615;49.304;10.576;2023-05-02T13:45:15;5.85;;;5.25;;
11121;SDS011;5615;49.304;10.576;2023-05-02T13:47:43;6.38;;;5.78;;
11121;SDS011;5615;49.304;10.576;2023-05-02T13:50:10;7.60;;;6.05;;
11121;SDS011;5615;49.304;10.576;2023-05-02T13:52:37;7.05;;;5.75;;
11121;SDS011;5615;49.304;10.576;2023-05-02T13:55:04;5.70;;;5.20;;
11121;SDS011;5615;49.304;10.576;2023-05-02T13:57:31;5.97;;;5.47;;
11121;SDS011;5615;49.304;10.576;2023-05-02T13:59:58;5.60;;;5.10;;
11121;SDS011;5615;49.304;10.576;2023-05-02T14:02:24;7.10;;;5.25;;
11121;SDS011;5615;49.304;10.576;2023-05-02T14:04:52;5.55;;;5.07;;
11121;SDS011;5615;49.304;10.576;2023-05-02T14:07:19;7.25;;;5.85;;
11121;SDS011;5615;49.304;10.576;2023-05-02T14:09:45;6.10;;;5.55;;
11121;SDS011;5615;49.304;10.576;2023-05-02T14:12:12;6.03;;;5.53;;
11121;SDS011;5615;49.304;10.576;2023-05-02T14:14:39;6.68;;;5.95;;
11121;SDS011;5615;49.304;10.576;2023-05-02T14:17:05;5.65;;;5.15;;
11121;SDS011;5615;49.304;10.576;2023-05-02T14:19:32;6.50;;;5.88;;
11121;SDS011;5615;49.304;10.576;2023-05-02T14:22:00;6.35;;;5.53;;
11121;SDS011;5615;49.304;10.576;2023-05-02T14:24:26;6.60;;;5.50;;
11121;SDS011;5615;49.304;10.576;2023-05-02T14:26:53;6.07;;;5.47;;
11121;SDS011;5615;49.304;10.576;2023-05-02T14:29:19;6.03;;;5.53;;
11121;SDS011;5615;49.304;10.576;2023-05-02T14:31:46;6.75;;;6.22;;
11121;SDS011;5615;49.304;10.576;2023-05-02T14:34:13;5.72;;;5.13;;
11121;SDS011;5615;49.304;10.576;2023-05-02T14:36:39;6.35;;;5.47;;
11121;SDS011;5615;49.304;10.576;2023-05-02T14:39:07;6.15;;;5.60;;
11121;SDS011;5615;49.304;10.576;2023-05-02T14:41:34;6.38;;;5.75;;
11121;SDS011;5615;49.304;10.576;2023-05-02T14:44:01;5.47;;;5.07;;